Pooler, GA (31322)

11:40 AM EDT on October 24, 2014 (GMT -0400)
Savannah International | Change Station
CLOSE
Current Station
Airport
Location: Savannah,
Elevation: 49 ft
Nearby Weather Stations

Elev 49 ft 32.13 °N, 81.20 °W | Updated 47 minutes ago

Mostly Cloudy
Mostly Cloudy
65 °F
Feels Like 65 °F
N
5
Wind Variable Wind from North

Today
High -- | Low -- °F
--% Chance of Precip.
Yesterday
High -- | Low -- °F
Precip. -- in
7:35 AM 6:42 PM
New Moon, 1% visible
Pressure 30.08 in
Visibility 10.0 miles
Clouds Scattered Clouds 18000 ft
Mostly Cloudy 25000 ft
Dew Point 47 °F
Humidity 52%
Rainfall 0.00 in
Snow Depth Not available.
UV 3 out of 12
Pollen 4.00 out of 12
Air Quality Not available.
Flu Activity Sporadic
METAR KSAV 241453Z 35004KT 10SM SCT180 BKN250 18/08 A3008 RMK AO2 SLP185 T01830083 51012

More Conditions Fewer Conditions

Pressure 30.08 in
Visibility 10.0 miles
Clouds Scattered Clouds 18000 ft
Mostly Cloudy 25000 ft
Dew Point 47 °F
Humidity 52%
Rainfall 0.00 in
Snow Depth Not available.
UV 3 out of 12
Pollen 4.00 out of 12
Air Quality Not available.
Flu Activity Sporadic
METAR KSAV 241453Z 35004KT 10SM SCT180 BKN250 18/08 A3008 RMK AO2 SLP185 T01830083 51012

More Conditions Fewer Conditions

10-Day Weather Forecast

Almanac

Astronomy

Oct. 24, 2014 Rise Set
Actual Time 7:35 AM EDT 6:42 PM EDT
Civil Twilight 7:10 AM EDT 7:07 PM EDT
Nautical Twilight 6:41 AM EDT 7:36 PM EDT
Astronomical Twilight 6:13 AM EDT 8:04 PM EDT
Moon 8:11 AM EDT 7:24 PM EDT
Length of Visible Light 11h 57m
Length of Day
11h 07m
Tomorrow will be 1m 49s shorter.
New Moon, 1% of the Moon is Illuminated
Today
New Moon
Oct 30
First Quarter
Nov 6
Full
Nov 14
Last Quarter
Nov 22
New

Today's Extremes

State Highs State Lows

Community

WunderPhotos

Upload Photos

1,764,590 photos uploaded!

WunderBlogs® & News

Nearby

Snow Depth

Station Depth Elevation
No new snow has been reported.

Earthquake Activity

City Distance Mag. Time & Date
No recent earthquake activity has been reported nearby.
Minimum magnitude displayed is 2.5.

Coastal Water Temperatures

Place Temperature
No Stations Reporting

Nearby Weather Stations